Time;durP1;ratioP1;P1;durP2;ratioP2;P2;SDS_P1;SDS_P2;PMS_P1;PMS_P2;Temp;Humidity;BMP_temperature;BMP_pressure;BME280_temperature;BME280_humidity;BME280_pressure;Samples;Min_cycle;Max_cycle;Signal;HPM_P1;HPM_P2
2021/05/11 00:00:08;;;;;;;4.07;1.73;;;;;;;;;;5051669;28;20020;-48
2021/05/11 00:02:34;;;;;;;3.25;1.77;;;;;;;;;;5053797;28;20471;-49
2021/05/11 00:05:00;;;;;;;3.55;1.73;;;;;;;;;;5054316;28;20037;-48
2021/05/11 00:07:26;;;;;;;2.85;1.77;;;;;;;;;;5053880;28;20052;-48
2021/05/11 00:09:52;;;;;;;2.47;1.75;;;;;;;;;;5054170;28;20052;-49
2021/05/11 00:12:18;;;;;;;4.03;1.75;;;;;;;;;;5054458;28;20032;-48
2021/05/11 00:14:44;;;;;;;5.63;1.90;;;;;;;;;;5054919;28;20365;-48
2021/05/11 00:17:10;;;;;;;3.58;1.85;;;;;;;;;;5053606;28;20115;-48
2021/05/11 00:19:36;;;;;;;4.93;1.63;;;;;;;;;;5054722;28;20020;-49
2021/05/11 00:22:02;;;;;;;3.30;1.75;;;;;;;;;;5054722;28;20096;-48
2021/05/11 00:24:28;;;;;;;3.25;1.70;;;;;;;;;;5053480;28;20032;-48
2021/05/11 00:26:54;;;;;;;2.63;1.80;;;;;;;;;;5051275;28;20087;-48
2021/05/11 00:29:20;;;;;;;2.63;1.63;;;;;;;;;;5050533;28;20024;-49
2021/05/11 00:31:46;;;;;;;4.50;1.70;;;;;;;;;;5054392;28;20090;-48
2021/05/11 00:34:12;;;;;;;4.80;1.60;;;;;;;;;;5053396;28;20041;-50
2021/05/11 00:36:38;;;;;;;3.47;1.52;;;;;;;;;;5052875;28;20029;-52
2021/05/11 00:39:04;;;;;;;5.00;1.92;;;;;;;;;;5054040;28;20021;-48
2021/05/11 00:41:30;;;;;;;5.13;1.73;;;;;;;;;;5054309;28;20814;-48
2021/05/11 00:43:56;;;;;;;5.47;1.13;;;;;;;;;;5054313;28;20037;-49
2021/05/11 00:46:22;;;;;;;2.15;1.50;;;;;;;;;;5053719;28;20033;-48
2021/05/11 00:48:48;;;;;;;6.15;1.52;;;;;;;;;;5050296;28;20094;-48
2021/05/11 00:51:14;;;;;;;4.85;1.80;;;;;;;;;;5049877;28;20033;-49
2021/05/11 00:53:42;;;;;;;1.70;1.30;;;;;;;;;;5053155;28;20107;-48
2021/05/11 00:56:09;;;;;;;7.22;1.60;;;;;;;;;;5053191;28;20443;-48
2021/05/11 00:58:35;;;;;;;7.00;1.23;;;;;;;;;;5053921;28;20665;-49
2021/05/11 01:01:01;;;;;;;3.63;1.80;;;;;;;;;;5050048;28;20389;-53
2021/05/11 01:03:27;;;;;;;2.45;1.27;;;;;;;;;;5048955;28;20055;-52
2021/05/11 01:05:53;;;;;;;1.92;1.30;;;;;;;;;;5051089;28;20028;-51
2021/05/11 01:08:20;;;;;;;4.75;1.20;;;;;;;;;;5052159;28;20051;-53
2021/05/11 01:10:46;;;;;;;2.90;1.40;;;;;;;;;;5053604;28;20033;-53
2021/05/11 01:13:12;;;;;;;2.83;1.33;;;;;;;;;;5052857;28;20078;-52
2021/05/11 01:15:41;;;;;;;2.08;1.15;;;;;;;;;;5052954;28;20033;-51
2021/05/11 01:18:13;;;;;;;3.13;1.40;;;;;;;;;;5047222;28;20666;-50
2021/05/11 01:20:43;;;;;;;6.13;1.70;;;;;;;;;;5047258;28;20085;-54
2021/05/11 01:23:39;;;;;;;1.40;1.23;;;;;;;;;;5053102;28;20024;-50
2021/05/11 01:26:09;;;;;;;2.83;1.30;;;;;;;;;;5052301;28;20037;-52
2021/05/11 01:32:16;;;;;;;7.28;1.45;;;;;;;;;;5052387;28;20044;-50
2021/05/11 01:51:16;;;;;;;3.95;1.38;;;;;;;;;;5051270;28;20044;-52
2021/05/11 02:18:25;;;;;;;2.90;1.45;;;;;;;;;;5051405;28;20078;-52
2021/05/11 02:23:36;;;;;;;3.53;1.30;;;;;;;;;;5043747;28;20490;-52
2021/05/11 02:26:03;;;;;;;6.15;1.60;;;;;;;;;;5049473;28;20028;-51
2021/05/11 02:28:29;;;;;;;3.97;1.65;;;;;;;;;;5048637;28;20372;-51
2021/05/11 02:30:55;;;;;;;5.40;1.60;;;;;;;;;;5041215;28;20041;-52
2021/05/11 02:33:21;;;;;;;5.63;2.10;;;;;;;;;;5052317;28;20032;-51
2021/05/11 02:35:47;;;;;;;2.38;1.58;;;;;;;;;;5051342;28;20548;-52
2021/05/11 02:38:14;;;;;;;2.33;1.50;;;;;;;;;;5048612;28;20108;-51
2021/05/11 02:40:40;;;;;;;2.22;1.35;;;;;;;;;;5051430;28;20104;-52
2021/05/11 02:43:11;;;;;;;4.13;1.90;;;;;;;;;;5051869;28;20028;-53
2021/05/11 02:45:37;;;;;;;3.30;1.70;;;;;;;;;;5051808;28;20021;-54
2021/05/11 02:48:04;;;;;;;1.90;1.52;;;;;;;;;;5050411;28;20032;-52
2021/05/11 02:50:31;;;;;;;2.55;1.60;;;;;;;;;;5048229;28;20492;-51
2021/05/11 02:52:57;;;;;;;3.78;1.63;;;;;;;;;;5051159;28;20081;-53
2021/05/11 02:55:23;;;;;;;4.57;1.88;;;;;;;;;;5051441;28;20045;-51
2021/05/11 02:57:50;;;;;;;2.60;1.80;;;;;;;;;;5052159;28;20056;-51
2021/05/11 03:00:16;;;;;;;3.38;1.67;;;;;;;;;;5050856;28;20049;-50
2021/05/11 03:02:43;;;;;;;4.47;2.35;;;;;;;;;;5047277;28;20052;-50
2021/05/11 03:05:09;;;;;;;2.83;1.80;;;;;;;;;;5051334;28;20031;-51
2021/05/11 03:07:35;;;;;;;8.20;1.67;;;;;;;;;;5051926;28;20094;-50
2021/05/11 03:10:01;;;;;;;3.22;1.73;;;;;;;;;;5051125;28;20033;-52
2021/05/11 03:12:27;;;;;;;2.83;1.67;;;;;;;;;;5051855;28;20047;-51
2021/05/11 03:14:53;;;;;;;8.57;2.05;;;;;;;;;;5051625;28;20028;-51
2021/05/11 03:17:19;;;;;;;4.80;2.03;;;;;;;;;;5050275;28;20025;-55
2021/05/11 03:19:46;;;;;;;3.35;1.80;;;;;;;;;;5050971;28;20029;-54
2021/05/11 03:22:12;;;;;;;3.33;1.50;;;;;;;;;;5051175;28;20116;-51
2021/05/11 03:24:41;;;;;;;3.63;1.63;;;;;;;;;;5051245;28;20043;-50
2021/05/11 03:27:07;;;;;;;4.13;1.73;;;;;;;;;;5051806;28;20120;-52
2021/05/11 03:29:33;;;;;;;7.95;2.45;;;;;;;;;;5051044;28;20868;-51
2021/05/11 03:31:59;;;;;;;2.83;1.77;;;;;;;;;;5051838;28;20021;-54
2021/05/11 03:34:25;;;;;;;2.58;1.60;;;;;;;;;;5051736;28;20037;-52
2021/05/11 03:36:51;;;;;;;2.38;1.60;;;;;;;;;;5051793;28;20025;-54
2021/05/11 03:39:17;;;;;;;3.35;1.67;;;;;;;;;;5054385;28;20110;-50
2021/05/11 03:42:06;;;;;;;5.35;1.50;;;;;;;;;;5053424;28;20032;-50
2021/05/11 03:44:33;;;;;;;2.65;1.67;;;;;;;;;;5053044;28;20029;-51
2021/05/11 03:46:59;;;;;;;5.40;2.08;;;;;;;;;;5043558;28;20051;-52
2021/05/11 03:49:25;;;;;;;3.22;1.73;;;;;;;;;;5045243;28;20465;-54
2021/05/11 03:51:51;;;;;;;2.80;1.98;;;;;;;;;;5054055;28;20406;-52
2021/05/11 03:54:17;;;;;;;4.75;2.25;;;;;;;;;;5054750;28;20059;-55
2021/05/11 03:56:43;;;;;;;4.65;1.90;;;;;;;;;;5050828;28;20111;-50
2021/05/11 03:59:09;;;;;;;3.05;1.90;;;;;;;;;;5048642;28;20035;-52
2021/05/11 04:01:35;;;;;;;2.63;1.83;;;;;;;;;;5055516;28;20116;-51
2021/05/11 04:04:01;;;;;;;6.85;2.25;;;;;;;;;;5053915;28;20528;-52
2021/05/11 04:06:27;;;;;;;5.30;2.40;;;;;;;;;;5052527;28;20127;-52
2021/05/11 04:08:57;;;;;;;4.35;2.22;;;;;;;;;;5052461;28;20377;-50
2021/05/11 04:11:55;;;;;;;5.05;2.55;;;;;;;;;;5053759;28;20021;-51
2021/05/11 04:17:06;;;;;;;3.70;2.20;;;;;;;;;;5039182;28;20075;-51
2021/05/11 04:19:34;;;;;;;4.82;2.00;;;;;;;;;;5051112;28;20044;-52
2021/05/11 04:22:00;;;;;;;5.18;3.03;;;;;;;;;;5050808;28;20365;-53
2021/05/11 04:24:27;;;;;;;8.15;2.67;;;;;;;;;;5054148;28;20029;-51
2021/05/11 04:26:53;;;;;;;14.48;3.28;;;;;;;;;;5053166;28;20021;-50
2021/05/11 04:29:19;;;;;;;4.50;2.50;;;;;;;;;;5046953;28;20495;-52
2021/05/11 04:31:45;;;;;;;6.97;3.28;;;;;;;;;;5052340;28;20121;-50
2021/05/11 04:34:11;;;;;;;8.13;3.28;;;;;;;;;;5049614;28;20025;-53
2021/05/11 04:36:37;;;;;;;6.78;3.10;;;;;;;;;;5052971;28;20036;-52
2021/05/11 04:39:05;;;;;;;7.32;2.67;;;;;;;;;;5053538;28;20451;-56
2021/05/11 04:41:31;;;;;;;10.00;3.33;;;;;;;;;;5054676;28;20019;-55
2021/05/11 04:44:00;;;;;;;6.30;2.90;;;;;;;;;;5054177;28;20460;-54
2021/05/11 04:46:38;;;;;;;5.50;3.15;;;;;;;;;;5050821;28;20018;-54
2021/05/11 04:49:04;;;;;;;4.95;3.20;;;;;;;;;;5046457;28;20573;-55
2021/05/11 04:51:30;;;;;;;6.20;3.22;;;;;;;;;;5052276;28;20037;-50
2021/05/11 04:53:56;;;;;;;5.80;3.70;;;;;;;;;;5053317;28;20065;-50
2021/05/11 04:56:22;;;;;;;8.70;3.80;;;;;;;;;;5053358;28;20037;-51
2021/05/11 04:58:48;;;;;;;10.85;3.45;;;;;;;;;;5053618;28;20480;-50
2021/05/11 05:01:14;;;;;;;6.03;3.25;;;;;;;;;;5050716;28;20033;-53
2021/05/11 05:03:41;;;;;;;5.38;3.22;;;;;;;;;;5049483;28;20017;-52
2021/05/11 05:06:08;;;;;;;4.65;2.75;;;;;;;;;;5039523;28;20025;-50
2021/05/11 05:08:34;;;;;;;6.00;3.25;;;;;;;;;;5048244;28;20112;-50
2021/05/11 05:11:00;;;;;;;4.60;3.22;;;;;;;;;;5047667;28;20031;-52
2021/05/11 05:13:27;;;;;;;8.95;3.85;;;;;;;;;;5047696;28;20029;-51
2021/05/11 05:15:53;;;;;;;9.23;3.15;;;;;;;;;;5040990;28;20029;-55
2021/05/11 05:18:20;;;;;;;10.73;3.45;;;;;;;;;;5050155;28;20074;-55
2021/05/11 05:20:49;;;;;;;6.90;3.20;;;;;;;;;;5052995;28;20056;-53
2021/05/11 05:23:16;;;;;;;6.63;3.60;;;;;;;;;;5048375;28;20025;-52
2021/05/11 05:25:43;;;;;;;7.75;3.63;;;;;;;;;;5053292;28;20029;-51
2021/05/11 05:28:12;;;;;;;8.35;3.60;;;;;;;;;;5059296;28;20033;-51
2021/05/11 05:30:38;;;;;;;10.00;3.17;;;;;;;;;;5052581;28;20029;-51
2021/05/11 05:33:04;;;;;;;7.60;3.38;;;;;;;;;;5053171;28;20043;-53
2021/05/11 05:35:30;;;;;;;6.15;2.90;;;;;;;;;;5053284;28;20429;-51
2021/05/11 05:37:56;;;;;;;6.07;3.30;;;;;;;;;;5049572;28;20124;-51
2021/05/11 05:40:24;;;;;;;5.57;3.67;;;;;;;;;;5052738;28;20043;-50
2021/05/11 05:42:50;;;;;;;6.45;3.10;;;;;;;;;;5052340;28;20027;-51
2021/05/11 05:45:16;;;;;;;6.50;3.08;;;;;;;;;;5051832;28;20036;-54
2021/05/11 05:47:51;;;;;;;4.78;2.80;;;;;;;;;;5052253;28;20108;-51
2021/05/11 05:50:27;;;;;;;7.97;3.45;;;;;;;;;;5047555;28;20060;-51
2021/05/11 05:53:00;;;;;;;5.90;3.13;;;;;;;;;;5042273;28;20021;-50
2021/05/11 05:55:26;;;;;;;6.60;3.58;;;;;;;;;;5052450;28;20107;-50
2021/05/11 05:57:52;;;;;;;8.02;3.08;;;;;;;;;;5051914;28;20025;-53
2021/05/11 06:00:18;;;;;;;6.00;3.28;;;;;;;;;;5045034;28;20029;-51
2021/05/11 06:02:46;;;;;;;5.05;3.17;;;;;;;;;;5042913;28;20347;-54
2021/05/11 06:05:12;;;;;;;4.47;3.20;;;;;;;;;;5046503;28;20031;-54
2021/05/11 06:07:39;;;;;;;7.32;3.45;;;;;;;;;;5051845;28;20033;-54
2021/05/11 06:10:06;;;;;;;6.20;3.10;;;;;;;;;;5049557;28;20025;-52
2021/05/11 06:12:40;;;;;;;7.05;3.47;;;;;;;;;;5050131;28;20104;-51
2021/05/11 06:17:36;;;;;;;8.77;3.90;;;;;;;;;;5046727;28;20028;-52
2021/05/11 06:20:02;;;;;;;5.90;3.40;;;;;;;;;;5047567;28;20018;-52
2021/05/11 06:22:28;;;;;;;9.45;3.75;;;;;;;;;;5044756;28;20036;-52
2021/05/11 06:24:54;;;;;;;7.13;3.40;;;;;;;;;;5043551;28;20763;-51
2021/05/11 06:27:20;;;;;;;5.78;3.40;;;;;;;;;;5050498;28;20087;-50
2021/05/11 06:29:47;;;;;;;9.50;3.10;;;;;;;;;;5046695;28;20036;-54
2021/05/11 06:32:13;;;;;;;6.82;3.42;;;;;;;;;;5047192;28;20033;-50
2021/05/11 06:34:52;;;;;;;6.05;2.45;;;;;;;;;;5048783;28;20104;-52
2021/05/11 06:37:18;;;;;;;6.30;3.00;;;;;;;;;;5044095;28;20029;-52
2021/05/11 06:39:46;;;;;;;5.13;3.33;;;;;;;;;;5051642;28;20515;-55
2021/05/11 06:42:13;;;;;;;4.25;2.50;;;;;;;;;;5051868;28;20692;-55
2021/05/11 06:45:02;;;;;;;7.07;2.80;;;;;;;;;;5045729;28;20117;-55
2021/05/11 06:47:32;;;;;;;5.15;2.75;;;;;;;;;;5043408;28;20041;-52
2021/05/11 06:52:40;;;;;;;7.65;3.05;;;;;;;;;;5047130;28;20052;-53
2021/05/11 06:52:54;;;;;;;5.95;3.17;;;;;;;;;;5044892;28;20037;-52
2021/05/11 06:55:21;;;;;;;6.47;3.22;;;;;;;;;;5051570;28;20090;-56
2021/05/11 06:57:47;;;;;;;6.25;3.30;;;;;;;;;;5051760;28;20233;-56
2021/05/11 07:00:13;;;;;;;8.93;3.75;;;;;;;;;;5045620;28;20045;-50
2021/05/11 07:02:39;;;;;;;5.15;3.13;;;;;;;;;;5046065;28;20021;-51
2021/05/11 07:05:05;;;;;;;6.05;3.15;;;;;;;;;;5050340;28;20519;-52
2021/05/11 07:07:33;;;;;;;6.43;3.53;;;;;;;;;;5047129;28;20104;-52
2021/05/11 07:15:19;;;;;;;11.90;4.63;;;;;;;;;;5055583;28;20040;-51
2021/05/11 07:17:45;;;;;;;9.95;4.22;;;;;;;;;;5055990;28;20036;-53
2021/05/11 07:20:11;;;;;;;10.75;3.55;;;;;;;;;;5055742;28;20021;-50
2021/05/11 07:22:37;;;;;;;7.50;3.35;;;;;;;;;;5048945;28;20052;-54
2021/05/11 07:25:08;;;;;;;9.00;3.10;;;;;;;;;;5054388;28;20021;-51
2021/05/11 07:28:08;;;;;;;5.18;3.13;;;;;;;;;;5051407;28;20100;-56
2021/05/11 07:30:32;;;;;;;7.63;3.47;;;;;;;;;;5047005;28;20040;-50
2021/05/11 07:32:58;;;;;;;7.03;3.20;;;;;;;;;;5050894;28;20041;-51
2021/05/11 07:35:24;;;;;;;5.43;3.03;;;;;;;;;;5055023;28;20368;-53
2021/05/11 07:37:50;;;;;;;6.82;3.80;;;;;;;;;;5053683;28;20033;-54
2021/05/11 07:40:17;;;;;;;6.75;3.40;;;;;;;;;;5045959;28;20028;-53
2021/05/11 07:42:43;;;;;;;8.98;3.40;;;;;;;;;;5044412;28;20631;-53
2021/05/11 07:45:11;;;;;;;8.35;3.25;;;;;;;;;;5053798;28;20028;-55
2021/05/11 07:48:12;;;;;;;8.10;3.50;;;;;;;;;;5049878;28;20039;-55
2021/05/11 07:51:08;;;;;;;8.00;3.65;;;;;;;;;;5043066;28;20075;-57
2021/05/11 07:56:42;;;;;;;8.73;3.20;;;;;;;;;;5044727;28;20055;-51
2021/05/11 08:04:58;;;;;;;5.65;3.92;;;;;;;;;;5052758;28;20040;-51
2021/05/11 08:10:33;;;;;;;9.27;3.45;;;;;;;;;;5058506;28;20086;-54
2021/05/11 08:15:53;;;;;;;6.90;3.10;;;;;;;;;;5043092;28;20656;-53
2021/05/11 08:28:59;;;;;;;7.60;3.13;;;;;;;;;;5037767;28;20360;-53
2021/05/11 08:31:25;;;;;;;7.15;3.00;;;;;;;;;;5043699;28;20029;-55
2021/05/11 08:33:51;;;;;;;5.50;2.88;;;;;;;;;;5052017;28;20032;-56
2021/05/11 08:36:17;;;;;;;5.40;3.00;;;;;;;;;;5053222;28;20025;-52
2021/05/11 08:38:43;;;;;;;8.57;2.80;;;;;;;;;;5052169;28;20488;-52
2021/05/11 08:41:09;;;;;;;5.93;2.85;;;;;;;;;;5054534;28;20052;-51
2021/05/11 08:43:36;;;;;;;5.63;3.20;;;;;;;;;;5053156;28;20078;-51
2021/05/11 08:46:06;;;;;;;6.40;2.75;;;;;;;;;;5042396;28;20034;-51
2021/05/11 08:48:33;;;;;;;9.65;3.10;;;;;;;;;;5047750;28;20026;-55
2021/05/11 08:51:18;;;;;;;7.60;3.22;;;;;;;;;;5050001;28;20029;-54
2021/05/11 09:23:33;;;;;;;4.80;2.78;;;;;;;;;;5046311;28;20083;-53
2021/05/11 09:26:49;;;;;;;7.38;2.50;;;;;;;;;;5053384;28;20035;-53
2021/05/11 09:29:26;;;;;;;6.43;2.42;;;;;;;;;;5048995;28;20029;-55
2021/05/11 09:32:04;;;;;;;4.05;2.55;;;;;;;;;;5049587;28;20035;-51
2021/05/11 09:54:25;;;;;;;7.22;3.08;;;;;;;;;;5044776;28;20052;-55
2021/05/11 09:56:59;;;;;;;4.07;2.15;;;;;;;;;;5042351;28;20074;-56
2021/05/11 10:46:51;;;;;;;6.10;2.17;;;;;;;;;;5045203;28;20709;-56
2021/05/11 10:49:23;;;;;;;6.50;2.47;;;;;;;;;;5044071;28;20025;-55
2021/05/11 10:52:10;;;;;;;4.07;2.35;;;;;;;;;;5049971;28;20028;-55
2021/05/11 10:54:37;;;;;;;5.20;2.50;;;;;;;;;;5048806;28;20587;-54
2021/05/11 10:57:24;;;;;;;5.35;2.05;;;;;;;;;;5051045;28;20048;-52
2021/05/11 11:00:03;;;;;;;4.22;2.20;;;;;;;;;;5054420;28;20186;-53
2021/05/11 11:05:02;;;;;;;5.70;2.33;;;;;;;;;;5051727;28;20120;-55
2021/05/11 11:07:42;;;;;;;6.45;1.98;;;;;;;;;;5063337;28;20025;-52
2021/05/11 11:10:09;;;;;;;11.75;1.95;;;;;;;;;;5055994;28;20028;-56
2021/05/11 11:12:37;;;;;;;2.78;1.50;;;;;;;;;;5053743;28;20058;-53
2021/05/11 11:15:05;;;;;;;5.68;2.63;;;;;;;;;;5041801;28;20123;-50
2021/05/11 11:17:31;;;;;;;7.97;2.22;;;;;;;;;;5043387;28;20026;-49
2021/05/11 11:20:01;;;;;;;6.13;2.15;;;;;;;;;;5055031;28;20098;-52
2021/05/11 11:25:15;;;;;;;5.85;2.17;;;;;;;;;;5047215;28;20802;-54
2021/05/11 11:27:41;;;;;;;3.67;2.40;;;;;;;;;;5048368;28;20063;-51
2021/05/11 11:30:11;;;;;;;3.47;1.98;;;;;;;;;;5053070;28;20395;-51
2021/05/11 11:32:38;;;;;;;6.13;2.03;;;;;;;;;;5047752;28;20347;-49
2021/05/11 11:35:07;;;;;;;5.10;2.00;;;;;;;;;;5048455;28;20037;-52
2021/05/11 11:37:34;;;;;;;7.75;2.22;;;;;;;;;;5046908;28;20037;-49
2021/05/11 11:40:04;;;;;;;4.57;1.95;;;;;;;;;;5048130;28;20028;-49
2021/05/11 11:42:51;;;;;;;5.55;2.40;;;;;;;;;;5044735;28;20025;-49
2021/05/11 11:45:25;;;;;;;5.30;2.60;;;;;;;;;;5048706;28;20252;-50
2021/05/11 11:47:55;;;;;;;6.53;1.98;;;;;;;;;;5046723;28;20024;-49
2021/05/11 11:50:21;;;;;;;4.20;2.10;;;;;;;;;;5047770;28;20021;-50
2021/05/11 11:58:08;;;;;;;11.32;1.88;;;;;;;;;;5051606;28;20036;-53
2021/05/11 12:00:35;;;;;;;3.40;1.90;;;;;;;;;;5056683;28;20021;-51
2021/05/11 12:03:06;;;;;;;4.95;1.85;;;;;;;;;;5053487;28;20025;-51
2021/05/11 12:05:33;;;;;;;5.90;1.60;;;;;;;;;;5055491;28;20033;-55
2021/05/11 12:10:30;;;;;;;7.65;2.03;;;;;;;;;;5055875;28;20035;-55
2021/05/11 12:12:57;;;;;;;5.28;1.83;;;;;;;;;;5044162;28;20473;-50
2021/05/11 12:15:23;;;;;;;5.30;2.10;;;;;;;;;;5050165;28;20036;-55
2021/05/11 12:18:07;;;;;;;4.00;1.70;;;;;;;;;;5043268;28;20036;-51
2021/05/11 12:20:33;;;;;;;5.22;1.83;;;;;;;;;;5034956;28;20025;-54
2021/05/11 12:23:03;;;;;;;9.75;2.22;;;;;;;;;;5063231;28;20472;-52
2021/05/11 12:25:29;;;;;;;4.38;1.52;;;;;;;;;;5057071;28;20036;-51
2021/05/11 12:27:57;;;;;;;6.28;2.00;;;;;;;;;;5040891;28;20112;-54
2021/05/11 12:30:35;;;;;;;6.45;1.92;;;;;;;;;;5051183;28;20024;-50
2021/05/11 12:33:11;;;;;;;6.88;1.55;;;;;;;;;;5043886;28;20043;-52
2021/05/11 12:35:42;;;;;;;6.82;2.28;;;;;;;;;;5052912;28;20032;-54
2021/05/11 12:38:22;;;;;;;3.38;1.60;;;;;;;;;;5053848;28;20035;-54
2021/05/11 12:40:57;;;;;;;4.00;1.95;;;;;;;;;;5053064;28;20408;-51
2021/05/11 12:43:43;;;;;;;11.13;1.95;;;;;;;;;;5044260;28;20028;-50
2021/05/11 12:46:16;;;;;;;4.80;1.70;;;;;;;;;;5051925;28;20029;-51
2021/05/11 12:48:56;;;;;;;6.82;1.95;;;;;;;;;;5054559;28;20594;-50
2021/05/11 12:51:29;;;;;;;5.18;1.65;;;;;;;;;;5052787;28;20025;-52
2021/05/11 12:53:57;;;;;;;3.08;1.42;;;;;;;;;;5058428;28;20057;-54
2021/05/11 12:56:43;;;;;;;7.43;1.52;;;;;;;;;;5046461;28;20078;-51
2021/05/11 12:59:14;;;;;;;3.17;1.25;;;;;;;;;;5044132;28;20018;-50
2021/05/11 13:04:38;;;;;;;3.20;1.20;;;;;;;;;;5050619;28;20067;-53
2021/05/11 13:23:20;;;;;;;2.63;1.20;;;;;;;;;;5053548;28;20046;-53
2021/05/11 13:28:26;;;;;;;;;;;;;;;;;;5055922;28;20048;-50
2021/05/11 13:30:58;;;;;;;3.42;1.70;;;;;;;;;;5053059;28;20558;-54
2021/05/11 13:33:46;;;;;;;4.13;1.63;;;;;;;;;;5052730;28;20367;-52
2021/05/11 13:36:12;;;;;;;6.38;1.60;;;;;;;;;;5041179;28;20018;-50
2021/05/11 13:38:38;;;;;;;8.38;1.73;;;;;;;;;;5051884;28;20449;-54
2021/05/11 13:41:04;;;;;;;4.07;1.65;;;;;;;;;;5053383;28;20029;-51
2021/05/11 13:43:30;;;;;;;4.88;1.60;;;;;;;;;;5053331;28;20028;-51
2021/05/11 13:45:57;;;;;;;3.30;1.48;;;;;;;;;;5047585;28;20033;-51
2021/05/11 13:48:26;;;;;;;4.97;2.13;;;;;;;;;;5044876;28;20036;-54
2021/05/11 13:51:14;;;;;;;4.82;1.55;;;;;;;;;;5046889;28;20028;-53
2021/05/11 13:53:42;;;;;;;3.72;1.77;;;;;;;;;;5048225;28;20040;-52
2021/05/11 13:56:25;;;;;;;4.18;1.50;;;;;;;;;;5052593;28;20032;-50
2021/05/11 14:01:57;;;;;;;3.03;1.60;;;;;;;;;;5052366;28;20125;-52
2021/05/11 14:04:24;;;;;;;3.20;1.67;;;;;;;;;;5051617;28;20100;-51
2021/05/11 14:06:49;;;;;;;3.28;1.55;;;;;;;;;;5052918;28;20461;-52
2021/05/11 14:09:16;;;;;;;6.68;2.38;;;;;;;;;;5052751;28;20036;-51
2021/05/11 14:11:42;;;;;;;2.97;1.63;;;;;;;;;;5047476;28;20032;-54
2021/05/11 14:14:09;;;;;;;3.22;1.75;;;;;;;;;;5053102;28;20025;-53
2021/05/11 14:16:35;;;;;;;4.22;1.60;;;;;;;;;;5049096;28;20342;-56
2021/05/11 14:19:01;;;;;;;8.82;1.60;;;;;;;;;;5049105;28;20057;-52
2021/05/11 14:21:27;;;;;;;2.80;1.52;;;;;;;;;;5047973;28;20021;-54
2021/05/11 14:23:56;;;;;;;5.30;1.65;;;;;;;;;;5040572;28;20031;-50
2021/05/11 14:26:22;;;;;;;2.90;1.55;;;;;;;;;;5051857;28;20025;-50
2021/05/11 14:28:48;;;;;;;2.80;1.48;;;;;;;;;;5048404;28;20021;-51
2021/05/11 14:31:14;;;;;;;5.93;1.20;;;;;;;;;;5047073;28;20377;-52
2021/05/11 14:33:40;;;;;;;4.45;1.60;;;;;;;;;;5045263;28;20036;-51
2021/05/11 14:36:09;;;;;;;4.68;1.90;;;;;;;;;;5049947;28;20048;-50
2021/05/11 14:38:36;;;;;;;4.15;1.67;;;;;;;;;;5050098;28;20032;-52
2021/05/11 14:41:03;;;;;;;6.85;1.85;;;;;;;;;;5053458;28;20070;-50
2021/05/11 14:43:33;;;;;;;4.30;1.60;;;;;;;;;;5052321;28;20017;-52
2021/05/11 14:45:59;;;;;;;5.30;2.00;;;;;;;;;;5049585;28;20492;-50
2021/05/11 14:48:26;;;;;;;8.40;1.92;;;;;;;;;;5047961;28;20029;-50
2021/05/11 14:50:52;;;;;;;3.35;1.60;;;;;;;;;;5052467;28;20040;-51
2021/05/11 14:53:18;;;;;;;3.47;1.60;;;;;;;;;;5048867;28;20033;-54
2021/05/11 14:55:44;;;;;;;5.90;2.25;;;;;;;;;;5050893;28;20086;-54
2021/05/11 14:58:10;;;;;;;3.97;1.98;;;;;;;;;;5047179;28;20029;-51
2021/05/11 15:00:36;;;;;;;5.05;1.98;;;;;;;;;;5042336;28;20028;-52
2021/05/11 15:03:05;;;;;;;6.72;2.50;;;;;;;;;;5051248;28;20036;-50
2021/05/11 15:05:31;;;;;;;7.43;3.10;;;;;;;;;;5051106;28;20465;-50
2021/05/11 15:07:57;;;;;;;5.47;1.95;;;;;;;;;;5051326;28;20032;-49
2021/05/11 15:10:23;;;;;;;8.10;3.00;;;;;;;;;;5051364;28;20116;-50
2021/05/11 15:12:50;;;;;;;4.93;2.00;;;;;;;;;;5052099;28;20029;-49
2021/05/11 15:15:21;;;;;;;7.03;2.75;;;;;;;;;;5051380;28;20037;-50
2021/05/11 15:20:18;;;;;;;4.30;2.63;;;;;;;;;;5052098;28;20112;-49
2021/05/11 15:22:44;;;;;;;7.28;2.50;;;;;;;;;;5050677;28;20025;-53
2021/05/11 15:25:11;;;;;;;6.88;2.63;;;;;;;;;;5050602;28;20037;-52
2021/05/11 15:27:37;;;;;;;5.20;2.40;;;;;;;;;;5049656;28;20087;-52
2021/05/11 15:30:04;;;;;;;6.22;2.53;;;;;;;;;;5046509;28;20032;-51
2021/05/11 15:32:53;;;;;;;10.32;2.45;;;;;;;;;;5052299;28;20021;-53
2021/05/11 15:35:21;;;;;;;6.97;2.33;;;;;;;;;;5053090;28;20033;-52
2021/05/11 15:37:52;;;;;;;4.82;3.10;;;;;;;;;;5052863;28;20485;-49
2021/05/11 15:40:19;;;;;;;4.78;2.17;;;;;;;;;;5051012;28;20037;-51
2021/05/11 15:42:45;;;;;;;6.40;1.98;;;;;;;;;;5054881;28;20024;-53
2021/05/11 15:45:11;;;;;;;5.07;2.00;;;;;;;;;;5053254;28;20032;-49
2021/05/11 15:47:38;;;;;;;4.75;2.65;;;;;;;;;;5046533;28;20040;-51
2021/05/11 15:50:07;;;;;;;9.68;2.78;;;;;;;;;;5054792;28;20033;-51
2021/05/11 15:52:33;;;;;;;7.03;2.67;;;;;;;;;;5055150;28;20115;-50
2021/05/11 15:54:59;;;;;;;3.58;2.22;;;;;;;;;;5042441;28;20122;-50
2021/05/11 15:57:25;;;;;;;10.18;2.78;;;;;;;;;;5049473;28;20469;-53
2021/05/11 15:59:51;;;;;;;4.47;2.75;;;;;;;;;;5045904;28;20033;-50
2021/05/11 16:02:17;;;;;;;6.38;2.63;;;;;;;;;;5054324;28;20464;-51
2021/05/11 16:04:43;;;;;;;7.60;3.00;;;;;;;;;;5048804;28;20033;-50
2021/05/11 16:07:12;;;;;;;4.68;2.60;;;;;;;;;;5051823;28;20021;-55
2021/05/11 16:09:38;;;;;;;3.75;2.50;;;;;;;;;;5054569;28;20443;-50
2021/05/11 16:12:04;;;;;;;7.47;2.47;;;;;;;;;;5054786;28;20373;-52
2021/05/11 16:14:30;;;;;;;4.82;2.97;;;;;;;;;;5055224;28;20049;-49
2021/05/11 16:16:56;;;;;;;8.00;2.67;;;;;;;;;;5052733;28;20526;-49
2021/05/11 16:19:22;;;;;;;5.65;2.20;;;;;;;;;;5046495;28;20372;-50
2021/05/11 16:21:48;;;;;;;10.63;3.03;;;;;;;;;;5053805;28;20025;-54
2021/05/11 16:24:14;;;;;;;4.53;2.50;;;;;;;;;;5053830;28;20036;-51
2021/05/11 16:26:40;;;;;;;5.20;2.90;;;;;;;;;;5042871;28;20456;-51
2021/05/11 16:29:06;;;;;;;3.45;2.40;;;;;;;;;;5045110;28;20025;-50
2021/05/11 16:31:32;;;;;;;8.00;2.95;;;;;;;;;;5053037;28;20059;-51
2021/05/11 16:33:59;;;;;;;4.20;2.45;;;;;;;;;;5029141;23;20564;-88
2021/05/11 16:36:25;;;;;;;7.07;3.00;;;;;;;;;;4991810;28;20055;-87
2021/05/11 16:38:51;;;;;;;5.28;2.50;;;;;;;;;;4995428;28;20389;-87
2021/05/11 16:41:17;;;;;;;2.85;2.40;;;;;;;;;;4986848;28;20019;-87
2021/05/11 16:43:43;;;;;;;6.13;2.40;;;;;;;;;;4976590;28;20019;-87
2021/05/11 17:00:49;;;;;;;9.32;2.35;;;;;;;;;;5093239;28;20146;-89
2021/05/11 17:03:15;;;;;;;3.97;2.33;;;;;;;;;;5057656;28;20040;-88
2021/05/11 17:05:42;;;;;;;5.10;2.40;;;;;;;;;;5049477;28;20017;-89
2021/05/11 17:08:10;;;;;;;4.28;2.45;;;;;;;;;;5044365;28;20033;-88
2021/05/11 17:10:36;;;;;;;2.80;2.05;;;;;;;;;;5047628;28;20025;-89
2021/05/11 17:13:03;;;;;;;4.90;2.10;;;;;;;;;;5034989;28;20398;-90
2021/05/11 17:15:30;;;;;;;7.18;2.50;;;;;;;;;;5036631;28;20013;-89
2021/05/11 17:17:59;;;;;;;5.55;1.95;;;;;;;;;;5038890;28;20036;-89
2021/05/11 17:20:28;;;;;;;10.50;2.15;;;;;;;;;;5038468;28;20021;-89
2021/05/11 17:22:55;;;;;;;9.55;2.70;;;;;;;;;;5044396;28;20017;-90
2021/05/11 17:25:22;;;;;;;8.02;3.25;;;;;;;;;;5052944;28;20062;-89
2021/05/11 17:29:18;;;;;;;7.68;2.55;;;;;;;;;;5042510;27;20400;-92
2021/05/11 17:31:44;;;;;;;15.35;3.40;;;;;;;;;;5026867;28;20059;-90
2021/05/11 17:34:12;;;;;;;6.72;2.55;;;;;;;;;;5027683;28;20350;-90
2021/05/11 17:36:38;;;;;;;5.53;2.25;;;;;;;;;;5064500;22;20048;-49
2021/05/11 17:39:05;;;;;;;6.90;2.08;;;;;;;;;;5096943;28;20478;-49
2021/05/11 17:41:32;;;;;;;5.78;2.40;;;;;;;;;;5103598;28;20618;-49
2021/05/11 17:44:43;;;;;;;3.13;2.25;;;;;;;;;;5096438;27;20182;-86
2021/05/11 17:47:10;;;;;;;4.38;2.55;;;;;;;;;;5066689;28;20024;-86
2021/05/11 17:49:36;;;;;;;5.82;3.15;;;;;;;;;;5062029;28;20028;-86
2021/05/11 17:52:02;;;;;;;4.75;2.55;;;;;;;;;;5072922;28;20025;-86
2021/05/11 17:54:28;;;;;;;6.28;2.50;;;;;;;;;;5069895;28;20468;-86
2021/05/11 17:58:36;;;;;;;9.20;2.45;;;;;;;;;;5108449;27;20147;-85
2021/05/11 18:01:46;;;;;;;7.80;2.60;;;;;;;;;;5097997;27;20154;-85
2021/05/11 18:04:12;;;;;;;5.53;2.35;;;;;;;;;;5073698;28;20035;-86
2021/05/11 18:06:38;;;;;;;11.15;3.10;;;;;;;;;;5054050;28;20032;-85
2021/05/11 18:09:04;;;;;;;5.10;3.28;;;;;;;;;;5052300;28;20039;-85
2021/05/11 18:11:30;;;;;;;8.45;2.80;;;;;;;;;;5048621;28;20544;-86
2021/05/11 18:14:24;;;;;;;4.38;2.22;;;;;;;;;;5097388;27;20165;-86
2021/05/11 18:16:50;;;;;;;6.95;2.60;;;;;;;;;;5090865;28;20445;-87
2021/05/11 18:26:24;;;;;;;5.95;2.90;;;;;;;;;;5085055;27;20530;-85
2021/05/11 18:28:50;;;;;;;7.35;2.40;;;;;;;;;;5090363;28;20027;-88
2021/05/11 18:31:16;;;;;;;6.70;2.80;;;;;;;;;;5070369;28;20055;-88
2021/05/11 18:33:44;;;;;;;6.40;2.30;;;;;;;;;;5061150;28;20029;-90
2021/05/11 18:36:23;;;;;;;7.35;2.72;;;;;;;;;;5059017;28;20105;-88
2021/05/11 18:38:55;;;;;;;4.35;2.70;;;;;;;;;;5082763;28;20380;-87
2021/05/11 18:41:21;;;;;;;6.38;2.80;;;;;;;;;;5068852;28;20499;-87
2021/05/11 18:43:47;;;;;;;7.68;2.60;;;;;;;;;;5074083;28;20058;-87
2021/05/11 18:46:13;;;;;;;5.60;2.67;;;;;;;;;;5081698;28;20024;-88
2021/05/11 18:48:39;;;;;;;5.35;3.08;;;;;;;;;;5059199;28;20059;-88
2021/05/11 18:51:05;;;;;;;7.43;3.00;;;;;;;;;;5062408;28;20476;-88
2021/05/11 18:53:31;;;;;;;7.05;3.05;;;;;;;;;;5065426;28;20031;-87
2021/05/11 18:55:57;;;;;;;4.50;2.28;;;;;;;;;;5078392;28;20032;-88
2021/05/11 18:58:23;;;;;;;12.13;3.40;;;;;;;;;;5062718;28;20485;-87